sensor_id;sensor_type;location;lat;lon;timestamp;pressure;altitude;pressure_sealevel;temperature
13570;BMP180;6856;51.460;7.158;2023-01-10T00:01:15;99959.00;;;10.20
13570;BMP180;6856;51.460;7.158;2023-01-10T00:03:49;99965.00;;;10.20
13570;BMP180;6856;51.460;7.158;2023-01-10T00:06:23;99966.00;;;10.20
13570;BMP180;6856;51.460;7.158;2023-01-10T00:08:56;99970.00;;;10.20
13570;BMP180;6856;51.460;7.158;2023-01-10T00:11:30;99969.00;;;10.20
13570;BMP180;6856;51.460;7.158;2023-01-10T00:14:25;99991.00;;;10.20
13570;BMP180;6856;51.460;7.158;2023-01-10T00:17:01;99985.00;;;10.10
13570;BMP180;6856;51.460;7.158;2023-01-10T00:19:35;99996.00;;;10.20
13570;BMP180;6856;51.460;7.158;2023-01-10T00:22:08;99999.00;;;10.10
13570;BMP180;6856;51.460;7.158;2023-01-10T00:24:54;100013.00;;;10.10
13570;BMP180;6856;51.460;7.158;2023-01-10T00:27:27;100015.00;;;10.10
13570;BMP180;6856;51.460;7.158;2023-01-10T00:30:05;100016.00;;;10.10
13570;BMP180;6856;51.460;7.158;2023-01-10T00:32:45;100026.00;;;10.20
13570;BMP180;6856;51.460;7.158;2023-01-10T00:35:18;100023.00;;;10.10
13570;BMP180;6856;51.460;7.158;2023-01-10T00:37:52;100042.00;;;10.10
13570;BMP180;6856;51.460;7.158;2023-01-10T00:40:31;100048.00;;;10.20
13570;BMP180;6856;51.460;7.158;2023-01-10T00:43:07;100048.00;;;10.20
13570;BMP180;6856;51.460;7.158;2023-01-10T00:45:56;100042.00;;;10.10
13570;BMP180;6856;51.460;7.158;2023-01-10T00:48:30;100048.00;;;10.10
13570;BMP180;6856;51.460;7.158;2023-01-10T00:51:04;100053.00;;;10.10
13570;BMP180;6856;51.460;7.158;2023-01-10T00:53:38;100059.00;;;10.10
13570;BMP180;6856;51.460;7.158;2023-01-10T00:56:11;100062.00;;;10.10
13570;BMP180;6856;51.460;7.158;2023-01-10T00:58:45;100062.00;;;10.10
13570;BMP180;6856;51.460;7.158;2023-01-10T01:01:20;100064.00;;;10.10
13570;BMP180;6856;51.460;7.158;2023-01-10T01:03:54;100067.00;;;10.10
13570;BMP180;6856;51.460;7.158;2023-01-10T01:06:30;100087.00;;;10.10
13570;BMP180;6856;51.460;7.158;2023-01-10T01:09:04;100085.00;;;10.10
13570;BMP180;6856;51.460;7.158;2023-01-10T01:11:38;100100.00;;;10.10
13570;BMP180;6856;51.460;7.158;2023-01-10T01:14:11;100098.00;;;10.00
13570;BMP180;6856;51.460;7.158;2023-01-10T01:16:47;100100.00;;;10.00
13570;BMP180;6856;51.460;7.158;2023-01-10T01:19:21;100106.00;;;10.00
13570;BMP180;6856;51.460;7.158;2023-01-10T01:21:55;100121.00;;;10.00
13570;BMP180;6856;51.460;7.158;2023-01-10T01:24:28;100128.00;;;10.00
13570;BMP180;6856;51.460;7.158;2023-01-10T01:27:02;100135.00;;;10.00
13570;BMP180;6856;51.460;7.158;2023-01-10T01:29:36;100138.00;;;10.00
13570;BMP180;6856;51.460;7.158;2023-01-10T01:32:16;100143.00;;;9.90
13570;BMP180;6856;51.460;7.158;2023-01-10T01:34:50;100144.00;;;9.90
13570;BMP180;6856;51.460;7.158;2023-01-10T01:37:23;100141.00;;;9.90
13570;BMP180;6856;51.460;7.158;2023-01-10T01:39:57;100147.00;;;9.90
13570;BMP180;6856;51.460;7.158;2023-01-10T01:42:33;100151.00;;;9.90
13570;BMP180;6856;51.460;7.158;2023-01-10T01:45:37;100152.00;;;9.90
13570;BMP180;6856;51.460;7.158;2023-01-10T01:48:32;100151.00;;;9.90
13570;BMP180;6856;51.460;7.158;2023-01-10T01:51:12;100149.00;;;9.90
13570;BMP180;6856;51.460;7.158;2023-01-10T01:53:53;100170.00;;;9.90
13570;BMP180;6856;51.460;7.158;2023-01-10T01:56:34;100177.00;;;9.90
13570;BMP180;6856;51.460;7.158;2023-01-10T01:59:15;100180.00;;;9.90
13570;BMP180;6856;51.460;7.158;2023-01-10T02:01:55;100189.00;;;9.90
13570;BMP180;6856;51.460;7.158;2023-01-10T02:04:37;100174.00;;;9.90
13570;BMP180;6856;51.460;7.158;2023-01-10T02:07:14;100185.00;;;9.90
13570;BMP180;6856;51.460;7.158;2023-01-10T02:09:52;100189.00;;;9.80
13570;BMP180;6856;51.460;7.158;2023-01-10T02:12:31;100191.00;;;9.80
13570;BMP180;6856;51.460;7.158;2023-01-10T02:15:06;100194.00;;;9.80
13570;BMP180;6856;51.460;7.158;2023-01-10T02:17:41;100197.00;;;9.90
13570;BMP180;6856;51.460;7.158;2023-01-10T02:20:18;100192.00;;;9.90
13570;BMP180;6856;51.460;7.158;2023-01-10T02:23:23;100194.00;;;9.90
13570;BMP180;6856;51.460;7.158;2023-01-10T02:26:30;100195.00;;;9.90
13570;BMP180;6856;51.460;7.158;2023-01-10T02:32:55;100203.00;;;9.90
13570;BMP180;6856;51.460;7.158;2023-01-10T02:36:02;100200.00;;;9.90
13570;BMP180;6856;51.460;7.158;2023-01-10T02:38:55;100201.00;;;9.90
13570;BMP180;6856;51.460;7.158;2023-01-10T02:41:38;100204.00;;;9.90
13570;BMP180;6856;51.460;7.158;2023-01-10T02:44:20;100208.00;;;9.90
13570;BMP180;6856;51.460;7.158;2023-01-10T02:46:55;100205.00;;;9.90
13570;BMP180;6856;51.460;7.158;2023-01-10T02:49:41;100206.00;;;9.90
13570;BMP180;6856;51.460;7.158;2023-01-10T02:52:19;100206.00;;;9.90
13570;BMP180;6856;51.460;7.158;2023-01-10T02:55:00;100212.00;;;9.90
13570;BMP180;6856;51.460;7.158;2023-01-10T02:57:48;100210.00;;;9.90
13570;BMP180;6856;51.460;7.158;2023-01-10T03:00:42;100220.00;;;9.90
13570;BMP180;6856;51.460;7.158;2023-01-10T03:03:29;100212.00;;;9.80
13570;BMP180;6856;51.460;7.158;2023-01-10T03:06:22;100214.00;;;9.80
13570;BMP180;6856;51.460;7.158;2023-01-10T03:09:08;100226.00;;;9.80
13570;BMP180;6856;51.460;7.158;2023-01-10T03:11:46;100224.00;;;9.80
13570;BMP180;6856;51.460;7.158;2023-01-10T03:14:25;100221.00;;;9.80
13570;BMP180;6856;51.460;7.158;2023-01-10T03:17:05;100232.00;;;9.80
13570;BMP180;6856;51.460;7.158;2023-01-10T03:19:47;100241.00;;;9.80
13570;BMP180;6856;51.460;7.158;2023-01-10T03:22:24;100223.00;;;9.80
13570;BMP180;6856;51.460;7.158;2023-01-10T03:25:02;100229.00;;;9.80
13570;BMP180;6856;51.460;7.158;2023-01-10T03:27:45;100246.00;;;9.80
13570;BMP180;6856;51.460;7.158;2023-01-10T03:30:27;100261.00;;;9.80
13570;BMP180;6856;51.460;7.158;2023-01-10T03:33:05;100255.00;;;9.80
13570;BMP180;6856;51.460;7.158;2023-01-10T03:35:54;100270.00;;;9.80
13570;BMP180;6856;51.460;7.158;2023-01-10T03:38:41;100275.00;;;9.80
13570;BMP180;6856;51.460;7.158;2023-01-10T03:41:29;100286.00;;;9.80
13570;BMP180;6856;51.460;7.158;2023-01-10T03:44:15;100284.00;;;9.70
13570;BMP180;6856;51.460;7.158;2023-01-10T03:47:12;100284.00;;;9.70
13570;BMP180;6856;51.460;7.158;2023-01-10T03:49:53;100287.00;;;9.70
13570;BMP180;6856;51.460;7.158;2023-01-10T03:52:28;100288.00;;;9.70
13570;BMP180;6856;51.460;7.158;2023-01-10T03:55:06;100288.00;;;9.70
13570;BMP180;6856;51.460;7.158;2023-01-10T03:57:42;100290.00;;;9.70
13570;BMP180;6856;51.460;7.158;2023-01-10T04:00:19;100295.00;;;9.60
13570;BMP180;6856;51.460;7.158;2023-01-10T04:02:52;100303.00;;;9.60
13570;BMP180;6856;51.460;7.158;2023-01-10T04:05:27;100308.00;;;9.60
13570;BMP180;6856;51.460;7.158;2023-01-10T04:08:00;100312.00;;;9.60
13570;BMP180;6856;51.460;7.158;2023-01-10T04:10:36;100317.00;;;9.60
13570;BMP180;6856;51.460;7.158;2023-01-10T04:13:09;100325.00;;;9.60
13570;BMP180;6856;51.460;7.158;2023-01-10T04:15:43;100318.00;;;9.50
13570;BMP180;6856;51.460;7.158;2023-01-10T04:18:17;100317.00;;;9.50
13570;BMP180;6856;51.460;7.158;2023-01-10T04:20:50;100323.00;;;9.50
13570;BMP180;6856;51.460;7.158;2023-01-10T04:23:24;100316.00;;;9.40
13570;BMP180;6856;51.460;7.158;2023-01-10T04:25:59;100338.00;;;9.40
13570;BMP180;6856;51.460;7.158;2023-01-10T04:28:32;100336.00;;;9.40
13570;BMP180;6856;51.460;7.158;2023-01-10T04:31:06;100338.00;;;9.40
13570;BMP180;6856;51.460;7.158;2023-01-10T04:33:39;100331.00;;;9.40
13570;BMP180;6856;51.460;7.158;2023-01-10T04:36:13;100322.00;;;9.30
13570;BMP180;6856;51.460;7.158;2023-01-10T04:38:47;100335.00;;;9.30
13570;BMP180;6856;51.460;7.158;2023-01-10T04:41:22;100322.00;;;9.30
13570;BMP180;6856;51.460;7.158;2023-01-10T04:43:55;100332.00;;;9.30
13570;BMP180;6856;51.460;7.158;2023-01-10T04:46:30;100344.00;;;9.30
13570;BMP180;6856;51.460;7.158;2023-01-10T04:49:03;100336.00;;;9.30
13570;BMP180;6856;51.460;7.158;2023-01-10T04:51:37;100339.00;;;9.30
13570;BMP180;6856;51.460;7.158;2023-01-10T04:54:11;100343.00;;;9.20
13570;BMP180;6856;51.460;7.158;2023-01-10T04:56:46;100331.00;;;9.20
13570;BMP180;6856;51.460;7.158;2023-01-10T04:59:20;100336.00;;;9.20
13570;BMP180;6856;51.460;7.158;2023-01-10T05:01:55;100334.00;;;9.20
13570;BMP180;6856;51.460;7.158;2023-01-10T05:04:29;100349.00;;;9.20
13570;BMP180;6856;51.460;7.158;2023-01-10T05:07:03;100360.00;;;9.10
13570;BMP180;6856;51.460;7.158;2023-01-10T05:09:36;100355.00;;;9.10
13570;BMP180;6856;51.460;7.158;2023-01-10T05:12:11;100334.00;;;9.10
13570;BMP180;6856;51.460;7.158;2023-01-10T05:14:45;100362.00;;;9.00
13570;BMP180;6856;51.460;7.158;2023-01-10T05:17:18;100371.00;;;9.00
13570;BMP180;6856;51.460;7.158;2023-01-10T05:19:52;100363.00;;;9.00
13570;BMP180;6856;51.460;7.158;2023-01-10T05:22:25;100371.00;;;9.00
13570;BMP180;6856;51.460;7.158;2023-01-10T05:24:59;100377.00;;;9.00
13570;BMP180;6856;51.460;7.158;2023-01-10T05:27:34;100357.00;;;9.00
13570;BMP180;6856;51.460;7.158;2023-01-10T05:30:11;100378.00;;;9.00
13570;BMP180;6856;51.460;7.158;2023-01-10T05:32:45;100397.00;;;9.00
13570;BMP180;6856;51.460;7.158;2023-01-10T05:35:19;100395.00;;;9.00
13570;BMP180;6856;51.460;7.158;2023-01-10T05:37:53;100396.00;;;9.00
13570;BMP180;6856;51.460;7.158;2023-01-10T05:40:26;100393.00;;;9.00
13570;BMP180;6856;51.460;7.158;2023-01-10T05:43:01;100374.00;;;9.00
13570;BMP180;6856;51.460;7.158;2023-01-10T05:45:35;100409.00;;;9.00
13570;BMP180;6856;51.460;7.158;2023-01-10T05:48:09;100398.00;;;9.00
13570;BMP180;6856;51.460;7.158;2023-01-10T05:50:43;100407.00;;;9.00
13570;BMP180;6856;51.460;7.158;2023-01-10T05:53:17;100405.00;;;9.00
13570;BMP180;6856;51.460;7.158;2023-01-10T05:55:56;100417.00;;;9.00
13570;BMP180;6856;51.460;7.158;2023-01-10T05:58:31;100417.00;;;9.00
13570;BMP180;6856;51.460;7.158;2023-01-10T06:01:04;100422.00;;;9.00
13570;BMP180;6856;51.460;7.158;2023-01-10T06:03:38;100428.00;;;9.00
13570;BMP180;6856;51.460;7.158;2023-01-10T06:06:11;100426.00;;;9.00
13570;BMP180;6856;51.460;7.158;2023-01-10T06:08:45;100439.00;;;9.00
13570;BMP180;6856;51.460;7.158;2023-01-10T06:11:19;100431.00;;;9.00
13570;BMP180;6856;51.460;7.158;2023-01-10T06:13:54;100434.00;;;9.00
13570;BMP180;6856;51.460;7.158;2023-01-10T06:16:28;100425.00;;;9.00
13570;BMP180;6856;51.460;7.158;2023-01-10T06:19:02;100434.00;;;9.00
13570;BMP180;6856;51.460;7.158;2023-01-10T06:21:36;100437.00;;;9.00
13570;BMP180;6856;51.460;7.158;2023-01-10T06:24:10;100441.00;;;8.90
13570;BMP180;6856;51.460;7.158;2023-01-10T06:26:44;100457.00;;;8.90
13570;BMP180;6856;51.460;7.158;2023-01-10T06:29:19;100464.00;;;8.90
13570;BMP180;6856;51.460;7.158;2023-01-10T06:31:53;100481.00;;;8.90
13570;BMP180;6856;51.460;7.158;2023-01-10T06:34:27;100496.00;;;8.90
13570;BMP180;6856;51.460;7.158;2023-01-10T06:37:01;100479.00;;;8.90
13570;BMP180;6856;51.460;7.158;2023-01-10T06:39:34;100470.00;;;8.90
13570;BMP180;6856;51.460;7.158;2023-01-10T06:42:08;100495.00;;;8.80
13570;BMP180;6856;51.460;7.158;2023-01-10T06:44:54;100485.00;;;8.80
13570;BMP180;6856;51.460;7.158;2023-01-10T06:47:28;100493.00;;;8.80
13570;BMP180;6856;51.460;7.158;2023-01-10T06:50:03;100476.00;;;8.80
13570;BMP180;6856;51.460;7.158;2023-01-10T06:52:38;100493.00;;;8.80
13570;BMP180;6856;51.460;7.158;2023-01-10T06:55:11;100496.00;;;8.80
13570;BMP180;6856;51.460;7.158;2023-01-10T06:57:45;100511.00;;;8.80
13570;BMP180;6856;51.460;7.158;2023-01-10T07:00:22;100517.00;;;8.80
13570;BMP180;6856;51.460;7.158;2023-01-10T07:02:58;100513.00;;;8.80
13570;BMP180;6856;51.460;7.158;2023-01-10T07:05:33;100526.00;;;8.80
13570;BMP180;6856;51.460;7.158;2023-01-10T07:08:07;100534.00;;;8.80
13570;BMP180;6856;51.460;7.158;2023-01-10T07:10:41;100533.00;;;8.80
13570;BMP180;6856;51.460;7.158;2023-01-10T07:13:16;100531.00;;;8.80
13570;BMP180;6856;51.460;7.158;2023-01-10T07:15:51;100535.00;;;8.80
13570;BMP180;6856;51.460;7.158;2023-01-10T07:18:25;100536.00;;;8.80
13570;BMP180;6856;51.460;7.158;2023-01-10T07:20:58;100542.00;;;8.80
13570;BMP180;6856;51.460;7.158;2023-01-10T07:23:32;100539.00;;;8.80
13570;BMP180;6856;51.460;7.158;2023-01-10T07:26:09;100537.00;;;8.80
13570;BMP180;6856;51.460;7.158;2023-01-10T07:28:49;100540.00;;;8.80
13570;BMP180;6856;51.460;7.158;2023-01-10T07:31:25;100546.00;;;8.80
13570;BMP180;6856;51.460;7.158;2023-01-10T07:33:59;100544.00;;;8.80
13570;BMP180;6856;51.460;7.158;2023-01-10T07:36:33;100544.00;;;8.80
13570;BMP180;6856;51.460;7.158;2023-01-10T07:39:10;100547.00;;;8.80
13570;BMP180;6856;51.460;7.158;2023-01-10T07:41:46;100548.00;;;8.90
13570;BMP180;6856;51.460;7.158;2023-01-10T07:44:20;100559.00;;;8.90
13570;BMP180;6856;51.460;7.158;2023-01-10T07:46:56;100564.00;;;8.90
13570;BMP180;6856;51.460;7.158;2023-01-10T07:49:30;100570.00;;;8.90
13570;BMP180;6856;51.460;7.158;2023-01-10T07:52:03;100573.00;;;8.90
13570;BMP180;6856;51.460;7.158;2023-01-10T07:54:40;100576.00;;;8.90
13570;BMP180;6856;51.460;7.158;2023-01-10T07:57:14;100571.00;;;8.90
13570;BMP180;6856;51.460;7.158;2023-01-10T07:59:47;100559.00;;;8.90
13570;BMP180;6856;51.460;7.158;2023-01-10T08:02:22;100574.00;;;8.90
13570;BMP180;6856;51.460;7.158;2023-01-10T08:04:56;100576.00;;;9.00
13570;BMP180;6856;51.460;7.158;2023-01-10T08:07:30;100582.00;;;8.90
13570;BMP180;6856;51.460;7.158;2023-01-10T08:10:06;100606.00;;;9.00
13570;BMP180;6856;51.460;7.158;2023-01-10T08:12:40;100600.00;;;8.90
13570;BMP180;6856;51.460;7.158;2023-01-10T08:15:13;100607.00;;;9.00
13570;BMP180;6856;51.460;7.158;2023-01-10T08:17:49;100616.00;;;8.90
13570;BMP180;6856;51.460;7.158;2023-01-10T08:20:22;100610.00;;;9.00
13570;BMP180;6856;51.460;7.158;2023-01-10T08:22:57;100613.00;;;9.00
13570;BMP180;6856;51.460;7.158;2023-01-10T08:25:30;100611.00;;;9.00
13570;BMP180;6856;51.460;7.158;2023-01-10T08:28:04;100617.00;;;9.00
13570;BMP180;6856;51.460;7.158;2023-01-10T08:30:38;100620.00;;;9.00
13570;BMP180;6856;51.460;7.158;2023-01-10T08:33:14;100615.00;;;9.10
13570;BMP180;6856;51.460;7.158;2023-01-10T08:35:48;100624.00;;;9.10
13570;BMP180;6856;51.460;7.158;2023-01-10T08:38:21;100626.00;;;9.10
13570;BMP180;6856;51.460;7.158;2023-01-10T08:40:55;100635.00;;;9.10
13570;BMP180;6856;51.460;7.158;2023-01-10T08:43:30;100630.00;;;9.10
13570;BMP180;6856;51.460;7.158;2023-01-10T08:46:04;100628.00;;;9.20
13570;BMP180;6856;51.460;7.158;2023-01-10T08:48:41;100631.00;;;9.20
13570;BMP180;6856;51.460;7.158;2023-01-10T08:51:15;100637.00;;;9.20
13570;BMP180;6856;51.460;7.158;2023-01-10T08:53:49;100632.00;;;9.20
13570;BMP180;6856;51.460;7.158;2023-01-10T08:56:23;100624.00;;;9.20
13570;BMP180;6856;51.460;7.158;2023-01-10T08:58:57;100631.00;;;9.20
13570;BMP180;6856;51.460;7.158;2023-01-10T09:01:31;100627.00;;;9.20
13570;BMP180;6856;51.460;7.158;2023-01-10T09:04:07;100632.00;;;9.20
13570;BMP180;6856;51.460;7.158;2023-01-10T09:06:40;100630.00;;;9.20
13570;BMP180;6856;51.460;7.158;2023-01-10T09:09:14;100641.00;;;9.20
13570;BMP180;6856;51.460;7.158;2023-01-10T09:11:48;100645.00;;;9.20
13570;BMP180;6856;51.460;7.158;2023-01-10T09:14:22;100650.00;;;9.10
13570;BMP180;6856;51.460;7.158;2023-01-10T09:16:56;100639.00;;;9.10
13570;BMP180;6856;51.460;7.158;2023-01-10T09:19:32;100639.00;;;9.10
13570;BMP180;6856;51.460;7.158;2023-01-10T09:22:05;100633.00;;;9.10
13570;BMP180;6856;51.460;7.158;2023-01-10T09:24:39;100649.00;;;9.10
13570;BMP180;6856;51.460;7.158;2023-01-10T09:27:15;100648.00;;;9.10
13570;BMP180;6856;51.460;7.158;2023-01-10T09:29:49;100640.00;;;9.10
13570;BMP180;6856;51.460;7.158;2023-01-10T09:32:22;100646.00;;;9.10
13570;BMP180;6856;51.460;7.158;2023-01-10T09:34:58;100645.00;;;9.20
13570;BMP180;6856;51.460;7.158;2023-01-10T09:37:31;100650.00;;;9.20
13570;BMP180;6856;51.460;7.158;2023-01-10T09:40:08;100657.00;;;9.20
13570;BMP180;6856;51.460;7.158;2023-01-10T09:42:58;100660.00;;;9.20
13570;BMP180;6856;51.460;7.158;2023-01-10T09:45:46;100662.00;;;9.20
13570;BMP180;6856;51.460;7.158;2023-01-10T09:48:34;100656.00;;;9.20
13570;BMP180;6856;51.460;7.158;2023-01-10T09:51:26;100660.00;;;9.20
13570;BMP180;6856;51.460;7.158;2023-01-10T09:54:12;100664.00;;;9.20
13570;BMP180;6856;51.460;7.158;2023-01-10T09:56:47;100665.00;;;9.20
13570;BMP180;6856;51.460;7.158;2023-01-10T09:59:25;100657.00;;;9.20
13570;BMP180;6856;51.460;7.158;2023-01-10T10:02:19;100657.00;;;9.30
13570;BMP180;6856;51.460;7.158;2023-01-10T10:05:10;100650.00;;;9.30
13570;BMP180;6856;51.460;7.158;2023-01-10T10:07:54;100656.00;;;9.30
13570;BMP180;6856;51.460;7.158;2023-01-10T10:10:38;100659.00;;;9.30
13570;BMP180;6856;51.460;7.158;2023-01-10T10:13:20;100658.00;;;9.40
13570;BMP180;6856;51.460;7.158;2023-01-10T10:16:08;100654.00;;;9.40
13570;BMP180;6856;51.460;7.158;2023-01-10T10:19:00;100655.00;;;9.50
13570;BMP180;6856;51.460;7.158;2023-01-10T10:21:47;100662.00;;;9.50
13570;BMP180;6856;51.460;7.158;2023-01-10T10:24:51;100651.00;;;9.60
13570;BMP180;6856;51.460;7.158;2023-01-10T10:27:35;100647.00;;;9.60
13570;BMP180;6856;51.460;7.158;2023-01-10T10:30:27;100655.00;;;9.60
13570;BMP180;6856;51.460;7.158;2023-01-10T10:33:25;100649.00;;;9.70
13570;BMP180;6856;51.460;7.158;2023-01-10T10:36:07;100651.00;;;9.70
13570;BMP180;6856;51.460;7.158;2023-01-10T10:38:45;100644.00;;;9.80
13570;BMP180;6856;51.460;7.158;2023-01-10T10:41:31;100653.00;;;9.90
13570;BMP180;6856;51.460;7.158;2023-01-10T10:44:27;100654.00;;;9.90
13570;BMP180;6856;51.460;7.158;2023-01-10T10:47:13;100654.00;;;10.00
13570;BMP180;6856;51.460;7.158;2023-01-10T10:49:54;100645.00;;;10.00
13570;BMP180;6856;51.460;7.158;2023-01-10T10:52:34;100646.00;;;10.00
13570;BMP180;6856;51.460;7.158;2023-01-10T10:55:13;100638.00;;;10.10
13570;BMP180;6856;51.460;7.158;2023-01-10T10:57:49;100642.00;;;10.10
13570;BMP180;6856;51.460;7.158;2023-01-10T11:00:31;100634.00;;;10.10
13570;BMP180;6856;51.460;7.158;2023-01-10T11:03:25;100629.00;;;10.20
13570;BMP180;6856;51.460;7.158;2023-01-10T11:05:59;100626.00;;;10.20
13570;BMP180;6856;51.460;7.158;2023-01-10T11:08:37;100619.00;;;10.20
13570;BMP180;6856;51.460;7.158;2023-01-10T11:11:21;100622.00;;;10.20
13570;BMP180;6856;51.460;7.158;2023-01-10T11:14:01;100612.00;;;10.30
13570;BMP180;6856;51.460;7.158;2023-01-10T11:16:37;100612.00;;;10.30
13570;BMP180;6856;51.460;7.158;2023-01-10T11:19:19;100604.00;;;10.40
13570;BMP180;6856;51.460;7.158;2023-01-10T11:21:58;100601.00;;;10.40
13570;BMP180;6856;51.460;7.158;2023-01-10T11:24:37;100614.00;;;10.40
13570;BMP180;6856;51.460;7.158;2023-01-10T11:27:16;100600.00;;;10.40
13570;BMP180;6856;51.460;7.158;2023-01-10T11:29:57;100611.00;;;10.40
13570;BMP180;6856;51.460;7.158;2023-01-10T11:32:37;100615.00;;;10.40
13570;BMP180;6856;51.460;7.158;2023-01-10T11:35:20;100605.00;;;10.40
13570;BMP180;6856;51.460;7.158;2023-01-10T11:38:01;100602.00;;;10.50
13570;BMP180;6856;51.460;7.158;2023-01-10T11:40:36;100594.00;;;10.50
13570;BMP180;6856;51.460;7.158;2023-01-10T11:43:30;100595.00;;;10.60
13570;BMP180;6856;51.460;7.158;2023-01-10T11:46:15;100594.00;;;10.60
13570;BMP180;6856;51.460;7.158;2023-01-10T11:48:59;100595.00;;;10.60
13570;BMP180;6856;51.460;7.158;2023-01-10T11:51:44;100577.00;;;10.70
13570;BMP180;6856;51.460;7.158;2023-01-10T11:54:22;100589.00;;;10.70
13570;BMP180;6856;51.460;7.158;2023-01-10T11:57:01;100596.00;;;10.70
13570;BMP180;6856;51.460;7.158;2023-01-10T11:59:36;100588.00;;;10.70
13570;BMP180;6856;51.460;7.158;2023-01-10T12:02:23;100591.00;;;10.70
13570;BMP180;6856;51.460;7.158;2023-01-10T12:05:02;100586.00;;;10.80
13570;BMP180;6856;51.460;7.158;2023-01-10T12:07:57;100586.00;;;10.80
13570;BMP180;6856;51.460;7.158;2023-01-10T12:10:33;100586.00;;;10.80
13570;BMP180;6856;51.460;7.158;2023-01-10T12:13:14;100577.00;;;10.80
13570;BMP180;6856;51.460;7.158;2023-01-10T12:15:50;100578.00;;;10.80
13570;BMP180;6856;51.460;7.158;2023-01-10T12:18:25;100574.00;;;10.90
13570;BMP180;6856;51.460;7.158;2023-01-10T12:20:58;100577.00;;;10.90
13570;BMP180;6856;51.460;7.158;2023-01-10T12:23:33;100571.00;;;10.90
13570;BMP180;6856;51.460;7.158;2023-01-10T12:26:12;100568.00;;;10.90
13570;BMP180;6856;51.460;7.158;2023-01-10T12:28:51;100563.00;;;10.90
13570;BMP180;6856;51.460;7.158;2023-01-10T12:31:31;100566.00;;;10.90
13570;BMP180;6856;51.460;7.158;2023-01-10T12:34:18;100560.00;;;10.90
13570;BMP180;6856;51.460;7.158;2023-01-10T12:37:00;100559.00;;;11.00
13570;BMP180;6856;51.460;7.158;2023-01-10T12:39:42;100554.00;;;11.00
13570;BMP180;6856;51.460;7.158;2023-01-10T12:42:37;100560.00;;;11.00
13570;BMP180;6856;51.460;7.158;2023-01-10T12:45:42;100556.00;;;11.00
13570;BMP180;6856;51.460;7.158;2023-01-10T12:48:32;100559.00;;;11.00
13570;BMP180;6856;51.460;7.158;2023-01-10T12:51:14;100555.00;;;11.10
13570;BMP180;6856;51.460;7.158;2023-01-10T12:53:56;100551.00;;;11.10
13570;BMP180;6856;51.460;7.158;2023-01-10T12:56:34;100543.00;;;11.10
13570;BMP180;6856;51.460;7.158;2023-01-10T12:59:18;100540.00;;;11.10
13570;BMP180;6856;51.460;7.158;2023-01-10T13:02:20;100535.00;;;11.10
13570;BMP180;6856;51.460;7.158;2023-01-10T13:05:02;100538.00;;;11.10
13570;BMP180;6856;51.460;7.158;2023-01-10T13:07:38;100521.00;;;11.20
13570;BMP180;6856;51.460;7.158;2023-01-10T13:10:17;100525.00;;;11.20
13570;BMP180;6856;51.460;7.158;2023-01-10T13:12:59;100516.00;;;11.20
13570;BMP180;6856;51.460;7.158;2023-01-10T13:15:51;100506.00;;;11.30
13570;BMP180;6856;51.460;7.158;2023-01-10T13:18:29;100499.00;;;11.30
13570;BMP180;6856;51.460;7.158;2023-01-10T13:21:09;100497.00;;;11.30
13570;BMP180;6856;51.460;7.158;2023-01-10T13:23:50;100497.00;;;11.40
13570;BMP180;6856;51.460;7.158;2023-01-10T13:26:24;100497.00;;;11.40
13570;BMP180;6856;51.460;7.158;2023-01-10T13:29:00;100482.00;;;11.40
13570;BMP180;6856;51.460;7.158;2023-01-10T13:31:35;100495.00;;;11.40
13570;BMP180;6856;51.460;7.158;2023-01-10T13:34:13;100496.00;;;11.30
13570;BMP180;6856;51.460;7.158;2023-01-10T13:36:54;100479.00;;;11.40
13570;BMP180;6856;51.460;7.158;2023-01-10T13:39:34;100472.00;;;11.40
13570;BMP180;6856;51.460;7.158;2023-01-10T13:42:24;100471.00;;;11.40
13570;BMP180;6856;51.460;7.158;2023-01-10T13:45:25;100475.00;;;11.40
13570;BMP180;6856;51.460;7.158;2023-01-10T13:48:23;100482.00;;;11.40
13570;BMP180;6856;51.460;7.158;2023-01-10T13:51:12;100488.00;;;11.40
13570;BMP180;6856;51.460;7.158;2023-01-10T13:53:57;100467.00;;;11.40
13570;BMP180;6856;51.460;7.158;2023-01-10T13:56:37;100458.00;;;11.40
13570;BMP180;6856;51.460;7.158;2023-01-10T14:02:27;100467.00;;;11.40
13570;BMP180;6856;51.460;7.158;2023-01-10T14:05:13;100466.00;;;11.40
13570;BMP180;6856;51.460;7.158;2023-01-10T14:07:51;100459.00;;;11.40
13570;BMP180;6856;51.460;7.158;2023-01-10T14:10:29;100442.00;;;11.40
13570;BMP180;6856;51.460;7.158;2023-01-10T14:13:16;100465.00;;;11.40
13570;BMP180;6856;51.460;7.158;2023-01-10T14:15:51;100444.00;;;11.40
13570;BMP180;6856;51.460;7.158;2023-01-10T14:18:31;100438.00;;;11.30
13570;BMP180;6856;51.460;7.158;2023-01-10T14:21:09;100434.00;;;11.40
13570;BMP180;6856;51.460;7.158;2023-01-10T14:23:54;100436.00;;;11.40
13570;BMP180;6856;51.460;7.158;2023-01-10T14:26:33;100431.00;;;11.40
13570;BMP180;6856;51.460;7.158;2023-01-10T14:29:14;100425.00;;;11.30
13570;BMP180;6856;51.460;7.158;2023-01-10T14:31:51;100426.00;;;11.30
13570;BMP180;6856;51.460;7.158;2023-01-10T14:34:29;100420.00;;;11.30
13570;BMP180;6856;51.460;7.158;2023-01-10T14:37:13;100420.00;;;11.30
13570;BMP180;6856;51.460;7.158;2023-01-10T14:39:50;100403.00;;;11.30
13570;BMP180;6856;51.460;7.158;2023-01-10T14:42:28;100395.00;;;11.30
13570;BMP180;6856;51.460;7.158;2023-01-10T14:45:18;100411.00;;;11.30
13570;BMP180;6856;51.460;7.158;2023-01-10T14:47:52;100399.00;;;11.30
13570;BMP180;6856;51.460;7.158;2023-01-10T14:50:29;100394.00;;;11.30
13570;BMP180;6856;51.460;7.158;2023-01-10T14:53:04;100380.00;;;11.30
13570;BMP180;6856;51.460;7.158;2023-01-10T14:55:41;100389.00;;;11.30
13570;BMP180;6856;51.460;7.158;2023-01-10T14:58:17;100386.00;;;11.30
13570;BMP180;6856;51.460;7.158;2023-01-10T15:00:54;100372.00;;;11.20
13570;BMP180;6856;51.460;7.158;2023-01-10T15:03:28;100386.00;;;11.20
13570;BMP180;6856;51.460;7.158;2023-01-10T15:06:02;100374.00;;;11.20
13570;BMP180;6856;51.460;7.158;2023-01-10T15:08:36;100388.00;;;11.20
13570;BMP180;6856;51.460;7.158;2023-01-10T15:11:12;100365.00;;;11.20
13570;BMP180;6856;51.460;7.158;2023-01-10T15:13:51;100353.00;;;11.20
13570;BMP180;6856;51.460;7.158;2023-01-10T15:16:28;100355.00;;;11.20
13570;BMP180;6856;51.460;7.158;2023-01-10T15:19:03;100358.00;;;11.20
13570;BMP180;6856;51.460;7.158;2023-01-10T15:21:42;100355.00;;;11.10
13570;BMP180;6856;51.460;7.158;2023-01-10T15:24:28;100368.00;;;11.10
13570;BMP180;6856;51.460;7.158;2023-01-10T15:27:10;100370.00;;;11.10
13570;BMP180;6856;51.460;7.158;2023-01-10T15:29:45;100370.00;;;11.10